sensor_id;sensor_type;location;lat;lon;timestamp;pressure;altitude;pressure_sealevel;temperature;humidity
10466;BME280;5280;42.600;23.556;2023-04-06T00:00:02;93144.44;;;-0.60;100.00
10466;BME280;5280;42.600;23.556;2023-04-06T00:02:30;93144.44;;;-0.60;100.00
10466;BME280;5280;42.600;23.556;2023-04-06T00:04:57;93130.75;;;-0.63;100.00
10466;BME280;5280;42.600;23.556;2023-04-06T00:07:23;93129.84;;;-0.62;100.00
10466;BME280;5280;42.600;23.556;2023-04-06T00:09:50;93135.84;;;-0.60;100.00
10466;BME280;5280;42.600;23.556;2023-04-06T00:12:19;93107.78;;;-0.72;100.00
10466;BME280;5280;42.600;23.556;2023-04-06T00:14:46;93132.41;;;-0.61;100.00
10466;BME280;5280;42.600;23.556;2023-04-06T00:17:13;93125.97;;;-0.52;100.00
10466;BME280;5280;42.600;23.556;2023-04-06T00:19:40;93121.69;;;-0.53;100.00
10466;BME280;5280;42.600;23.556;2023-04-06T00:22:07;93111.19;;;-0.50;100.00
10466;BME280;5280;42.600;23.556;2023-04-06T00:24:33;93103.06;;;-0.43;100.00
10466;BME280;5280;42.600;23.556;2023-04-06T00:27:01;93052.91;;;-0.63;100.00
10466;BME280;5280;42.600;23.556;2023-04-06T00:29:29;93114.16;;;-0.19;100.00
10466;BME280;5280;42.600;23.556;2023-04-06T00:31:56;93111.25;;;-0.11;99.80
10466;BME280;5280;42.600;23.556;2023-04-06T00:34:23;93096.53;;;-0.11;98.57
10466;BME280;5280;42.600;23.556;2023-04-06T00:36:50;93087.75;;;-0.08;98.24
10466;BME280;5280;42.600;23.556;2023-04-06T00:39:16;93100.47;;;-0.02;98.10
10466;BME280;5280;42.600;23.556;2023-04-06T00:41:46;93098.34;;;0.06;98.31
10466;BME280;5280;42.600;23.556;2023-04-06T00:44:15;93104.41;;;0.07;97.74
10466;BME280;5280;42.600;23.556;2023-04-06T00:46:44;93099.41;;;0.02;98.26
10466;BME280;5280;42.600;23.556;2023-04-06T00:49:11;93103.00;;;-0.01;99.01
10466;BME280;5280;42.600;23.556;2023-04-06T00:51:41;93099.75;;;-0.06;100.00
10466;BME280;5280;42.600;23.556;2023-04-06T00:54:08;93099.66;;;-0.04;99.46
10466;BME280;5280;42.600;23.556;2023-04-06T00:56:35;93100.97;;;-0.14;100.00
10466;BME280;5280;42.600;23.556;2023-04-06T00:59:02;93094.59;;;-0.26;100.00
10466;BME280;5280;42.600;23.556;2023-04-06T01:01:29;93078.56;;;-0.35;100.00
10466;BME280;5280;42.600;23.556;2023-04-06T01:03:59;93087.75;;;-0.28;100.00
10466;BME280;5280;42.600;23.556;2023-04-06T01:06:28;93070.03;;;-0.39;100.00
10466;BME280;5280;42.600;23.556;2023-04-06T01:08:54;93087.97;;;-0.33;100.00
10466;BME280;5280;42.600;23.556;2023-04-06T01:11:21;93083.47;;;-0.29;100.00
10466;BME280;5280;42.600;23.556;2023-04-06T01:13:48;93084.09;;;-0.24;100.00
10466;BME280;5280;42.600;23.556;2023-04-06T01:16:15;93082.94;;;-0.17;100.00
10466;BME280;5280;42.600;23.556;2023-04-06T01:18:44;93071.91;;;-0.22;100.00
10466;BME280;5280;42.600;23.556;2023-04-06T01:21:12;93069.91;;;-0.16;100.00
10466;BME280;5280;42.600;23.556;2023-04-06T01:23:44;93059.63;;;-0.19;100.00
10466;BME280;5280;42.600;23.556;2023-04-06T01:26:11;93067.44;;;-0.19;99.87
10466;BME280;5280;42.600;23.556;2023-04-06T01:28:38;93052.84;;;-0.21;99.46
10466;BME280;5280;42.600;23.556;2023-04-06T01:31:08;93055.22;;;-0.17;100.00
10466;BME280;5280;42.600;23.556;2023-04-06T01:33:35;93057.28;;;-0.05;99.62
10466;BME280;5280;42.600;23.556;2023-04-06T01:36:03;93052.16;;;-0.06;98.99
10466;BME280;5280;42.600;23.556;2023-04-06T01:38:29;93064.38;;;-0.08;98.65
10466;BME280;5280;42.600;23.556;2023-04-06T01:40:58;93060.38;;;0.04;98.21
10466;BME280;5280;42.600;23.556;2023-04-06T01:43:25;93060.31;;;0.05;97.78
10466;BME280;5280;42.600;23.556;2023-04-06T01:45:54;93058.56;;;0.06;97.39
10466;BME280;5280;42.600;23.556;2023-04-06T01:48:21;93060.50;;;0.00;97.94
10466;BME280;5280;42.600;23.556;2023-04-06T01:50:47;93063.41;;;-0.06;96.68
10466;BME280;5280;42.600;23.556;2023-04-06T01:53:14;93058.22;;;-0.06;97.15
10466;BME280;5280;42.600;23.556;2023-04-06T01:55:41;93054.81;;;-0.08;98.27
10466;BME280;5280;42.600;23.556;2023-04-06T01:58:10;93037.91;;;-0.16;98.05
10466;BME280;5280;42.600;23.556;2023-04-06T02:00:37;93054.13;;;-0.11;98.94
10466;BME280;5280;42.600;23.556;2023-04-06T02:03:04;93056.53;;;-0.07;98.79
10466;BME280;5280;42.600;23.556;2023-04-06T02:05:32;93056.31;;;-0.02;98.31
10466;BME280;5280;42.600;23.556;2023-04-06T02:08:03;93047.03;;;-0.08;98.18
10466;BME280;5280;42.600;23.556;2023-04-06T02:10:30;93053.91;;;-0.07;97.89
10466;BME280;5280;42.600;23.556;2023-04-06T02:12:57;93034.47;;;-0.17;98.78
10466;BME280;5280;42.600;23.556;2023-04-06T02:15:26;93048.34;;;-0.18;98.08
10466;BME280;5280;42.600;23.556;2023-04-06T02:17:53;93051.31;;;-0.07;97.52
10466;BME280;5280;42.600;23.556;2023-04-06T02:20:20;93051.19;;;-0.04;96.37
10466;BME280;5280;42.600;23.556;2023-04-06T02:22:47;93039.38;;;-0.11;96.76
10466;BME280;5280;42.600;23.556;2023-04-06T02:25:14;93053.97;;;-0.08;95.80
10466;BME280;5280;42.600;23.556;2023-04-06T02:27:40;93055.81;;;-0.10;97.25
10466;BME280;5280;42.600;23.556;2023-04-06T02:30:08;93038.47;;;-0.10;97.39
10466;BME280;5280;42.600;23.556;2023-04-06T02:32:36;93030.81;;;-0.13;97.11
10466;BME280;5280;42.600;23.556;2023-04-06T02:35:06;93020.84;;;-0.22;97.76
10466;BME280;5280;42.600;23.556;2023-04-06T02:37:32;93015.66;;;-0.22;96.64
10466;BME280;5280;42.600;23.556;2023-04-06T02:39:59;93031.66;;;-0.12;96.95
10466;BME280;5280;42.600;23.556;2023-04-06T02:42:26;93046.97;;;-0.06;97.65
10466;BME280;5280;42.600;23.556;2023-04-06T02:44:53;93028.16;;;-0.11;97.90
10466;BME280;5280;42.600;23.556;2023-04-06T02:47:19;93030.41;;;-0.04;96.73
10466;BME280;5280;42.600;23.556;2023-04-06T02:49:48;93019.59;;;-0.13;96.40
10466;BME280;5280;42.600;23.556;2023-04-06T02:52:14;93023.66;;;-0.08;96.60
10466;BME280;5280;42.600;23.556;2023-04-06T02:54:45;93034.63;;;-0.01;96.36
10466;BME280;5280;42.600;23.556;2023-04-06T02:57:12;93017.03;;;-0.15;98.10
10466;BME280;5280;42.600;23.556;2023-04-06T02:59:39;93040.09;;;-0.07;97.95
10466;BME280;5280;42.600;23.556;2023-04-06T03:02:06;93018.88;;;-0.17;97.79
10466;BME280;5280;42.600;23.556;2023-04-06T03:04:33;93040.25;;;-0.10;97.43
10466;BME280;5280;42.600;23.556;2023-04-06T03:07:01;93037.34;;;-0.04;96.42
10466;BME280;5280;42.600;23.556;2023-04-06T03:09:28;93038.81;;;0.02;96.45
10466;BME280;5280;42.600;23.556;2023-04-06T03:11:55;93037.97;;;0.01;94.83
10466;BME280;5280;42.600;23.556;2023-04-06T03:14:24;93037.00;;;0.04;95.56
10466;BME280;5280;42.600;23.556;2023-04-06T03:16:51;93023.50;;;-0.05;96.41
10466;BME280;5280;42.600;23.556;2023-04-06T03:19:18;93026.91;;;-0.03;96.38
10466;BME280;5280;42.600;23.556;2023-04-06T03:21:45;93022.75;;;-0.07;96.95
10466;BME280;5280;42.600;23.556;2023-04-06T03:24:13;93028.31;;;0.05;97.38
10466;BME280;5280;42.600;23.556;2023-04-06T03:26:41;93048.53;;;0.17;96.91
10466;BME280;5280;42.600;23.556;2023-04-06T03:29:08;93041.63;;;0.16;96.85
10466;BME280;5280;42.600;23.556;2023-04-06T03:31:34;93042.28;;;0.21;97.15
10466;BME280;5280;42.600;23.556;2023-04-06T03:34:01;93051.63;;;0.25;97.67
10466;BME280;5280;42.600;23.556;2023-04-06T03:36:28;93048.88;;;0.28;97.79
10466;BME280;5280;42.600;23.556;2023-04-06T03:38:56;93044.38;;;0.31;98.06
10466;BME280;5280;42.600;23.556;2023-04-06T03:41:24;93046.03;;;0.34;97.56
10466;BME280;5280;42.600;23.556;2023-04-06T03:43:52;93029.72;;;0.12;97.68
10466;BME280;5280;42.600;23.556;2023-04-06T03:46:18;93042.22;;;0.22;96.88
10466;BME280;5280;42.600;23.556;2023-04-06T03:48:48;93035.00;;;0.29;95.08
10466;BME280;5280;42.600;23.556;2023-04-06T03:51:18;93035.91;;;0.28;95.51
10466;BME280;5280;42.600;23.556;2023-04-06T03:53:45;93035.22;;;0.24;96.21
10466;BME280;5280;42.600;23.556;2023-04-06T03:56:13;93027.00;;;0.15;96.14
10466;BME280;5280;42.600;23.556;2023-04-06T03:58:41;93036.06;;;0.25;96.39
10466;BME280;5280;42.600;23.556;2023-04-06T04:01:09;93025.34;;;0.12;96.26
10466;BME280;5280;42.600;23.556;2023-04-06T04:03:37;92970.41;;;-0.16;97.17
10466;BME280;5280;42.600;23.556;2023-04-06T04:06:06;93047.88;;;0.30;96.57
10466;BME280;5280;42.600;23.556;2023-04-06T04:08:33;93034.91;;;0.30;95.64
10466;BME280;5280;42.600;23.556;2023-04-06T04:11:01;93035.06;;;0.27;96.09
10466;BME280;5280;42.600;23.556;2023-04-06T04:13:28;93032.50;;;0.26;96.23
10466;BME280;5280;42.600;23.556;2023-04-06T04:15:56;93019.09;;;0.16;96.16
10466;BME280;5280;42.600;23.556;2023-04-06T04:18:23;93032.09;;;0.35;95.59
10466;BME280;5280;42.600;23.556;2023-04-06T04:20:50;93020.47;;;0.25;95.62
10466;BME280;5280;42.600;23.556;2023-04-06T04:23:18;93036.59;;;0.31;94.55
10466;BME280;5280;42.600;23.556;2023-04-06T04:25:44;93045.38;;;0.29;94.25
10466;BME280;5280;42.600;23.556;2023-04-06T04:28:11;93041.72;;;0.33;94.69
10466;BME280;5280;42.600;23.556;2023-04-06T04:30:38;93042.78;;;0.29;94.27
10466;BME280;5280;42.600;23.556;2023-04-06T04:33:07;93043.53;;;0.31;94.29
10466;BME280;5280;42.600;23.556;2023-04-06T04:35:34;93047.81;;;0.32;94.64
10466;BME280;5280;42.600;23.556;2023-04-06T04:38:01;93046.78;;;0.36;95.06
10466;BME280;5280;42.600;23.556;2023-04-06T04:40:28;93049.03;;;0.43;95.94
10466;BME280;5280;42.600;23.556;2023-04-06T04:42:54;93034.50;;;0.39;95.72
10466;BME280;5280;42.600;23.556;2023-04-06T04:45:21;93041.03;;;0.48;96.61
10466;BME280;5280;42.600;23.556;2023-04-06T04:47:48;93044.72;;;0.61;96.47
10466;BME280;5280;42.600;23.556;2023-04-06T04:50:17;93047.25;;;0.63;95.61
10466;BME280;5280;42.600;23.556;2023-04-06T04:52:44;93047.25;;;0.63;95.52
10466;BME280;5280;42.600;23.556;2023-04-06T04:55:10;93027.31;;;0.63;95.71
10466;BME280;5280;42.600;23.556;2023-04-06T04:57:37;93030.97;;;0.59;95.33
10466;BME280;5280;42.600;23.556;2023-04-06T05:00:05;93001.97;;;0.50;96.02
10466;BME280;5280;42.600;23.556;2023-04-06T05:02:32;93033.59;;;0.76;96.00
10466;BME280;5280;42.600;23.556;2023-04-06T05:04:59;93042.09;;;0.80;95.77
10466;BME280;5280;42.600;23.556;2023-04-06T05:07:27;93038.56;;;0.81;95.23
10466;BME280;5280;42.600;23.556;2023-04-06T05:09:54;93043.50;;;0.87;95.03
10466;BME280;5280;42.600;23.556;2023-04-06T05:12:21;93040.19;;;0.83;93.85
10466;BME280;5280;42.600;23.556;2023-04-06T05:14:48;93034.09;;;0.84;93.86
10466;BME280;5280;42.600;23.556;2023-04-06T05:17:15;93046.41;;;0.98;93.72
10466;BME280;5280;42.600;23.556;2023-04-06T05:19:42;93047.72;;;0.90;92.66
10466;BME280;5280;42.600;23.556;2023-04-06T05:22:09;93026.75;;;0.93;93.88
10466;BME280;5280;42.600;23.556;2023-04-06T05:24:38;93031.28;;;1.06;95.48
10466;BME280;5280;42.600;23.556;2023-04-06T05:27:05;93036.41;;;1.25;97.07
10466;BME280;5280;42.600;23.556;2023-04-06T05:29:32;93038.03;;;1.27;96.96
10466;BME280;5280;42.600;23.556;2023-04-06T05:32:00;93013.59;;;1.13;96.79
10466;BME280;5280;42.600;23.556;2023-04-06T05:34:27;93042.53;;;1.41;94.22
10466;BME280;5280;42.600;23.556;2023-04-06T05:36:54;93032.00;;;1.44;94.95
10466;BME280;5280;42.600;23.556;2023-04-06T05:39:22;93010.84;;;1.33;93.68
10466;BME280;5280;42.600;23.556;2023-04-06T05:41:50;93025.78;;;1.47;91.27
10466;BME280;5280;42.600;23.556;2023-04-06T05:44:17;93015.00;;;1.37;88.63
10466;BME280;5280;42.600;23.556;2023-04-06T05:46:44;93014.31;;;1.34;89.32
10466;BME280;5280;42.600;23.556;2023-04-06T05:49:11;93022.41;;;1.45;89.74
10466;BME280;5280;42.600;23.556;2023-04-06T05:51:38;92988.94;;;1.37;91.25
10466;BME280;5280;42.600;23.556;2023-04-06T05:54:05;93017.13;;;1.63;89.62
10466;BME280;5280;42.600;23.556;2023-04-06T05:56:32;93012.44;;;1.53;89.56
10466;BME280;5280;42.600;23.556;2023-04-06T05:59:00;92987.75;;;1.44;89.68
10466;BME280;5280;42.600;23.556;2023-04-06T06:01:27;93020.47;;;1.65;90.80
10466;BME280;5280;42.600;23.556;2023-04-06T06:03:54;93021.16;;;1.69;89.64
10466;BME280;5280;42.600;23.556;2023-04-06T06:06:21;93016.28;;;1.63;91.31
10466;BME280;5280;42.600;23.556;2023-04-06T06:08:48;93023.00;;;1.67;89.87
10466;BME280;5280;42.600;23.556;2023-04-06T06:11:15;93016.63;;;1.72;91.10
10466;BME280;5280;42.600;23.556;2023-04-06T06:13:42;93025.00;;;1.79;90.35
10466;BME280;5280;42.600;23.556;2023-04-06T06:16:10;93022.59;;;1.74;89.60
10466;BME280;5280;42.600;23.556;2023-04-06T06:18:37;92998.28;;;1.58;90.83
10466;BME280;5280;42.600;23.556;2023-04-06T06:21:04;93018.22;;;1.75;90.61
10466;BME280;5280;42.600;23.556;2023-04-06T06:23:31;93017.97;;;1.64;91.35
10466;BME280;5280;42.600;23.556;2023-04-06T06:25:58;93014.88;;;1.73;93.08
10466;BME280;5280;42.600;23.556;2023-04-06T06:28:26;92994.28;;;1.68;91.85
10466;BME280;5280;42.600;23.556;2023-04-06T06:30:53;93015.72;;;1.73;90.86
10466;BME280;5280;42.600;23.556;2023-04-06T06:33:21;93018.00;;;1.80;91.01
10466;BME280;5280;42.600;23.556;2023-04-06T06:35:50;93021.91;;;1.71;91.53
10466;BME280;5280;42.600;23.556;2023-04-06T06:38:17;93020.69;;;1.78;93.00
10466;BME280;5280;42.600;23.556;2023-04-06T06:40:45;92995.34;;;1.64;91.11
10466;BME280;5280;42.600;23.556;2023-04-06T06:43:12;93025.06;;;1.78;92.10
10466;BME280;5280;42.600;23.556;2023-04-06T06:45:40;93020.13;;;1.89;92.39
10466;BME280;5280;42.600;23.556;2023-04-06T06:48:07;93018.03;;;1.95;92.37
10466;BME280;5280;42.600;23.556;2023-04-06T06:50:35;92992.31;;;1.89;92.48
10466;BME280;5280;42.600;23.556;2023-04-06T06:53:02;93012.22;;;2.23;92.61
10466;BME280;5280;42.600;23.556;2023-04-06T06:55:29;93016.16;;;2.30;92.67
10466;BME280;5280;42.600;23.556;2023-04-06T06:57:56;93016.63;;;2.38;91.64
10466;BME280;5280;42.600;23.556;2023-04-06T07:00:23;92996.94;;;2.33;91.31
10466;BME280;5280;42.600;23.556;2023-04-06T07:02:50;93023.34;;;2.42;91.18
10466;BME280;5280;42.600;23.556;2023-04-06T07:05:17;93020.81;;;2.41;90.21
10466;BME280;5280;42.600;23.556;2023-04-06T07:07:45;93033.00;;;2.40;89.28
10466;BME280;5280;42.600;23.556;2023-04-06T07:10:12;93025.50;;;2.50;90.59
10466;BME280;5280;42.600;23.556;2023-04-06T07:12:39;93019.63;;;2.46;89.07
10466;BME280;5280;42.600;23.556;2023-04-06T07:15:07;92994.38;;;2.31;89.81
10466;BME280;5280;42.600;23.556;2023-04-06T07:17:34;93017.28;;;2.57;91.36
10466;BME280;5280;42.600;23.556;2023-04-06T07:20:03;93008.97;;;2.67;90.67
10466;BME280;5280;42.600;23.556;2023-04-06T07:22:31;92999.94;;;2.56;87.83
10466;BME280;5280;42.600;23.556;2023-04-06T07:24:59;93015.00;;;2.67;90.09
10466;BME280;5280;42.600;23.556;2023-04-06T07:27:26;93019.22;;;2.70;89.21
10466;BME280;5280;42.600;23.556;2023-04-06T07:29:53;93001.63;;;2.73;87.85
10466;BME280;5280;42.600;23.556;2023-04-06T07:32:20;93003.28;;;2.90;90.09
10466;BME280;5280;42.600;23.556;2023-04-06T07:34:47;93019.97;;;3.03;87.78
10466;BME280;5280;42.600;23.556;2023-04-06T07:37:14;92984.53;;;2.83;87.04
10466;BME280;5280;42.600;23.556;2023-04-06T07:39:41;93010.19;;;3.07;88.26
10466;BME280;5280;42.600;23.556;2023-04-06T07:42:09;93018.13;;;3.19;87.87
10466;BME280;5280;42.600;23.556;2023-04-06T07:44:36;93016.59;;;3.31;85.60
10466;BME280;5280;42.600;23.556;2023-04-06T07:47:03;93023.84;;;3.26;85.75
10466;BME280;5280;42.600;23.556;2023-04-06T07:49:30;93010.53;;;3.30;87.82
10466;BME280;5280;42.600;23.556;2023-04-06T07:51:58;93016.53;;;3.32;86.81
10466;BME280;5280;42.600;23.556;2023-04-06T07:54:26;93008.28;;;3.24;84.63
10466;BME280;5280;42.600;23.556;2023-04-06T07:56:52;93013.56;;;3.38;85.94
10466;BME280;5280;42.600;23.556;2023-04-06T07:59:21;93007.78;;;3.33;85.36
10466;BME280;5280;42.600;23.556;2023-04-06T08:01:48;93014.19;;;3.28;85.25
10466;BME280;5280;42.600;23.556;2023-04-06T08:04:15;93018.03;;;3.36;85.77
10466;BME280;5280;42.600;23.556;2023-04-06T08:06:42;93012.53;;;3.41;85.28
10466;BME280;5280;42.600;23.556;2023-04-06T08:09:08;93007.38;;;3.39;85.53
10466;BME280;5280;42.600;23.556;2023-04-06T08:11:35;93016.47;;;3.48;84.05
10466;BME280;5280;42.600;23.556;2023-04-06T08:14:02;93021.81;;;3.61;83.98
10466;BME280;5280;42.600;23.556;2023-04-06T08:16:31;93014.16;;;3.58;84.09
10466;BME280;5280;42.600;23.556;2023-04-06T08:18:58;93006.69;;;3.52;83.41
10466;BME280;5280;42.600;23.556;2023-04-06T08:21:24;93002.06;;;3.71;84.06
10466;BME280;5280;42.600;23.556;2023-04-06T08:23:51;93004.03;;;3.81;83.94
10466;BME280;5280;42.600;23.556;2023-04-06T08:26:18;93007.03;;;3.89;80.63
10466;BME280;5280;42.600;23.556;2023-04-06T08:28:45;93004.88;;;3.96;83.35
10466;BME280;5280;42.600;23.556;2023-04-06T08:31:12;93014.16;;;4.16;82.96
10466;BME280;5280;42.600;23.556;2023-04-06T08:33:40;93011.78;;;4.40;80.67
10466;BME280;5280;42.600;23.556;2023-04-06T08:36:08;93004.72;;;4.42;80.43
10466;BME280;5280;42.600;23.556;2023-04-06T08:38:36;93002.66;;;4.47;79.68
10466;BME280;5280;42.600;23.556;2023-04-06T08:41:07;92996.81;;;4.70;78.84
10466;BME280;5280;42.600;23.556;2023-04-06T08:43:40;92990.06;;;4.80;79.59
10466;BME280;5280;42.600;23.556;2023-04-06T08:46:08;93001.41;;;4.66;77.15
10466;BME280;5280;42.600;23.556;2023-04-06T08:48:36;93000.53;;;4.80;75.89
10466;BME280;5280;42.600;23.556;2023-04-06T08:51:05;92999.78;;;4.78;75.09
10466;BME280;5280;42.600;23.556;2023-04-06T08:53:32;93009.72;;;4.73;77.01
10466;BME280;5280;42.600;23.556;2023-04-06T08:55:59;93003.91;;;4.82;77.64
10466;BME280;5280;42.600;23.556;2023-04-06T08:58:32;93006.69;;;4.79;75.21
10466;BME280;5280;42.600;23.556;2023-04-06T09:00:59;93003.34;;;4.77;75.07
10466;BME280;5280;42.600;23.556;2023-04-06T09:03:28;93003.63;;;4.72;75.62
10466;BME280;5280;42.600;23.556;2023-04-06T09:05:56;93005.16;;;4.89;76.28
10466;BME280;5280;42.600;23.556;2023-04-06T09:08:24;92995.63;;;4.88;76.19
10466;BME280;5280;42.600;23.556;2023-04-06T09:10:52;93000.09;;;5.00;76.87
10466;BME280;5280;42.600;23.556;2023-04-06T09:13:19;92992.88;;;5.04;75.08
10466;BME280;5280;42.600;23.556;2023-04-06T09:15:46;92986.41;;;5.09;71.30
10466;BME280;5280;42.600;23.556;2023-04-06T09:18:13;92992.69;;;5.07;72.73
10466;BME280;5280;42.600;23.556;2023-04-06T09:20:40;92983.31;;;5.17;74.27
10466;BME280;5280;42.600;23.556;2023-04-06T09:23:17;92995.69;;;5.28;73.31
10466;BME280;5280;42.600;23.556;2023-04-06T09:25:45;92986.22;;;5.12;71.08
10466;BME280;5280;42.600;23.556;2023-04-06T09:28:12;92996.16;;;5.07;70.71
10466;BME280;5280;42.600;23.556;2023-04-06T09:30:47;93002.38;;;4.92;69.72
10466;BME280;5280;42.600;23.556;2023-04-06T09:33:22;93003.75;;;4.98;72.72
10466;BME280;5280;42.600;23.556;2023-04-06T09:35:49;93001.63;;;4.90;72.81
10466;BME280;5280;42.600;23.556;2023-04-06T09:38:16;92988.78;;;5.00;72.64
10466;BME280;5280;42.600;23.556;2023-04-06T09:40:51;93006.25;;;4.99;71.98
10466;BME280;5280;42.600;23.556;2023-04-06T09:43:24;92999.00;;;5.17;71.85
10466;BME280;5280;42.600;23.556;2023-04-06T09:45:51;93000.03;;;5.41;69.74
10466;BME280;5280;42.600;23.556;2023-04-06T09:48:20;93002.88;;;5.51;69.01
10466;BME280;5280;42.600;23.556;2023-04-06T09:50:49;92999.97;;;5.68;68.68
10466;BME280;5280;42.600;23.556;2023-04-06T09:53:18;92992.34;;;5.78;67.50
10466;BME280;5280;42.600;23.556;2023-04-06T09:55:46;92997.06;;;5.85;67.39
10466;BME280;5280;42.600;23.556;2023-04-06T09:58:19;92990.50;;;5.92;64.68
10466;BME280;5280;42.600;23.556;2023-04-06T10:00:58;92988.28;;;5.99;65.61
10466;BME280;5280;42.600;23.556;2023-04-06T10:03:32;92991.25;;;6.07;67.10
10466;BME280;5280;42.600;23.556;2023-04-06T10:06:05;92985.16;;;6.07;65.29
10466;BME280;5280;42.600;23.556;2023-04-06T10:08:34;92975.94;;;6.01;63.96
10466;BME280;5280;42.600;23.556;2023-04-06T10:11:05;92977.72;;;6.00;62.37
10466;BME280;5280;42.600;23.556;2023-04-06T10:13:34;92941.91;;;5.61;62.38
10466;BME280;5280;42.600;23.556;2023-04-06T10:16:02;92987.56;;;5.97;63.58
10466;BME280;5280;42.600;23.556;2023-04-06T10:18:29;92982.63;;;6.05;62.48
10466;BME280;5280;42.600;23.556;2023-04-06T10:21:01;92975.19;;;6.12;65.27
10466;BME280;5280;42.600;23.556;2023-04-06T10:23:32;92961.44;;;6.21;62.48
10466;BME280;5280;42.600;23.556;2023-04-06T10:26:01;92973.16;;;6.28;64.07
10466;BME280;5280;42.600;23.556;2023-04-06T10:28:31;92962.16;;;6.35;62.63
10466;BME280;5280;42.600;23.556;2023-04-06T10:31:01;92960.84;;;6.54;62.87
10466;BME280;5280;42.600;23.556;2023-04-06T10:33:28;92973.97;;;6.54;61.72
10466;BME280;5280;42.600;23.556;2023-04-06T10:35:55;92965.34;;;6.64;60.29
10466;BME280;5280;42.600;23.556;2023-04-06T10:38:33;92970.09;;;6.59;62.67
10466;BME280;5280;42.600;23.556;2023-04-06T10:41:04;92968.81;;;6.65;60.31
10466;BME280;5280;42.600;23.556;2023-04-06T10:43:33;92966.84;;;6.56;57.31
10466;BME280;5280;42.600;23.556;2023-04-06T10:46:03;92957.97;;;6.20;60.96
10466;BME280;5280;42.600;23.556;2023-04-06T10:48:37;92938.25;;;6.15;62.89
10466;BME280;5280;42.600;23.556;2023-04-06T10:51:08;92958.69;;;6.35;62.25
10466;BME280;5280;42.600;23.556;2023-04-06T10:53:36;92961.41;;;6.33;60.05
10466;BME280;5280;42.600;23.556;2023-04-06T10:56:04;92963.50;;;6.41;61.26
10466;BME280;5280;42.600;23.556;2023-04-06T10:58:35;92915.25;;;6.18;63.00
10466;BME280;5280;42.600;23.556;2023-04-06T11:01:04;92950.28;;;6.30;59.38
10466;BME280;5280;42.600;23.556;2023-04-06T11:03:31;92960.78;;;6.30;58.84
10466;BME280;5280;42.600;23.556;2023-04-06T11:05:59;92953.13;;;6.39;58.66
10466;BME280;5280;42.600;23.556;2023-04-06T11:08:27;92961.09;;;6.38;60.26
10466;BME280;5280;42.600;23.556;2023-04-06T11:11:05;92956.66;;;6.51;59.83
10466;BME280;5280;42.600;23.556;2023-04-06T11:13:40;92955.59;;;6.54;61.90
10466;BME280;5280;42.600;23.556;2023-04-06T11:16:12;92952.47;;;6.48;59.14
10466;BME280;5280;42.600;23.556;2023-04-06T11:18:50;92954.25;;;6.48;59.64
10466;BME280;5280;42.600;23.556;2023-04-06T11:21:18;92928.97;;;6.47;62.18
10466;BME280;5280;42.600;23.556;2023-04-06T11:23:45;92942.22;;;6.69;60.34
10466;BME280;5280;42.600;23.556;2023-04-06T11:26:12;92944.31;;;6.77;58.71
10466;BME280;5280;42.600;23.556;2023-04-06T11:28:40;92943.84;;;6.59;56.00
10466;BME280;5280;42.600;23.556;2023-04-06T11:31:09;92937.88;;;6.57;57.86
10466;BME280;5280;42.600;23.556;2023-04-06T11:33:36;92922.97;;;6.45;58.53
10466;BME280;5280;42.600;23.556;2023-04-06T11:36:04;92948.06;;;6.49;57.44
10466;BME280;5280;42.600;23.556;2023-04-06T11:38:32;92945.94;;;6.54;59.06
10466;BME280;5280;42.600;23.556;2023-04-06T11:40:59;92944.81;;;6.45;59.11
10466;BME280;5280;42.600;23.556;2023-04-06T11:43:27;92948.28;;;6.33;59.13
10466;BME280;5280;42.600;23.556;2023-04-06T11:45:59;92935.81;;;6.24;58.69
10466;BME280;5280;42.600;23.556;2023-04-06T11:48:29;92942.53;;;6.28;60.06
10466;BME280;5280;42.600;23.556;2023-04-06T11:50:56;92935.41;;;6.30;58.80
10466;BME280;5280;42.600;23.556;2023-04-06T11:53:24;92951.75;;;6.34;59.79
10466;BME280;5280;42.600;23.556;2023-04-06T11:55:51;92905.53;;;6.08;58.02
10466;BME280;5280;42.600;23.556;2023-04-06T11:58:17;92946.41;;;6.23;59.04
10466;BME280;5280;42.600;23.556;2023-04-06T12:00:44;92939.63;;;6.08;59.12
10466;BME280;5280;42.600;23.556;2023-04-06T12:03:12;92944.66;;;6.11;60.99
10466;BME280;5280;42.600;23.556;2023-04-06T12:05:40;92941.72;;;6.02;59.47
10466;BME280;5280;42.600;23.556;2023-04-06T12:08:07;92938.25;;;6.15;60.17
10466;BME280;5280;42.600;23.556;2023-04-06T12:10:34;92937.31;;;6.16;59.94
10466;BME280;5280;42.600;23.556;2023-04-06T12:13:01;92937.59;;;6.36;60.02
10466;BME280;5280;42.600;23.556;2023-04-06T12:15:28;92904.34;;;6.24;58.68
10466;BME280;5280;42.600;23.556;2023-04-06T12:17:55;92931.38;;;6.50;59.57
10466;BME280;5280;42.600;23.556;2023-04-06T12:20:22;92932.63;;;6.57;58.44
10466;BME280;5280;42.600;23.556;2023-04-06T12:22:51;92929.34;;;6.54;56.79
10466;BME280;5280;42.600;23.556;2023-04-06T12:25:18;92914.38;;;6.43;59.78
10466;BME280;5280;42.600;23.556;2023-04-06T12:27:45;92943.75;;;6.48;58.22
10466;BME280;5280;42.600;23.556;2023-04-06T12:30:13;92929.47;;;6.52;55.69
10466;BME280;5280;42.600;23.556;2023-04-06T12:32:40;92927.44;;;6.32;58.04
10466;BME280;5280;42.600;23.556;2023-04-06T12:35:08;92930.75;;;6.34;58.52
10466;BME280;5280;42.600;23.556;2023-04-06T12:37:37;92939.91;;;6.28;58.67
10466;BME280;5280;42.600;23.556;2023-04-06T12:40:07;92935.31;;;6.19;58.88
10466;BME280;5280;42.600;23.556;2023-04-06T12:42:36;92930.38;;;6.15;58.78
10466;BME280;5280;42.600;23.556;2023-04-06T12:45:03;92930.41;;;6.02;58.51
10466;BME280;5280;42.600;23.556;2023-04-06T12:47:30;92903.41;;;5.75;61.52
10466;BME280;5280;42.600;23.556;2023-04-06T12:49:57;92932.69;;;5.81;59.79
10466;BME280;5280;42.600;23.556;2023-04-06T12:55:32;92913.91;;;6.00;61.74
10466;BME280;5280;42.600;23.556;2023-04-06T12:58:00;92917.88;;;6.18;62.67
10466;BME280;5280;42.600;23.556;2023-04-06T13:00:27;92918.91;;;6.28;59.60
10466;BME280;5280;42.600;23.556;2023-04-06T13:02:55;92911.56;;;6.33;57.75
10466;BME280;5280;42.600;23.556;2023-04-06T13:05:22;92914.25;;;6.57;59.23
10466;BME280;5280;42.600;23.556;2023-04-06T13:07:49;92901.25;;;6.43;58.89
10466;BME280;5280;42.600;23.556;2023-04-06T13:10:16;92911.22;;;6.51;57.16
10466;BME280;5280;42.600;23.556;2023-04-06T13:12:44;92903.91;;;6.30;57.85